sensor_id;sensor_type;location;lat;lon;timestamp;pressure;altitude;pressure_sealevel;temperature;humidity
39949;BME280;29070;48.102;-1.652;2023-04-07T00:04:00;101721.38;;;7.48;69.52
39949;BME280;29070;48.102;-1.652;2023-04-07T00:09:00;101719.06;;;7.45;70.09
39949;BME280;29070;48.102;-1.652;2023-04-07T00:14:01;101716.91;;;7.40;69.76
39949;BME280;29070;48.102;-1.652;2023-04-07T00:19:01;101712.53;;;7.31;70.05
39949;BME280;29070;48.102;-1.652;2023-04-07T00:24:01;101712.34;;;7.24;70.14
39949;BME280;29070;48.102;-1.652;2023-04-07T00:29:02;101706.28;;;7.24;70.09
39949;BME280;29070;48.102;-1.652;2023-04-07T00:34:02;101707.94;;;7.25;70.84
39949;BME280;29070;48.102;-1.652;2023-04-07T00:39:02;101698.97;;;7.28;71.15
39949;BME280;29070;48.102;-1.652;2023-04-07T00:44:03;101695.09;;;7.32;71.07
39949;BME280;29070;48.102;-1.652;2023-04-07T00:49:03;101696.72;;;7.33;71.95
39949;BME280;29070;48.102;-1.652;2023-04-07T00:54:05;101684.34;;;7.35;71.47
39949;BME280;29070;48.102;-1.652;2023-04-07T00:59:05;101688.22;;;7.31;71.64
39949;BME280;29070;48.102;-1.652;2023-04-07T01:04:14;101694.41;;;7.30;71.92
39949;BME280;29070;48.102;-1.652;2023-04-07T01:09:26;101686.91;;;7.27;71.91
39949;BME280;29070;48.102;-1.652;2023-04-07T01:14:32;101696.97;;;7.21;72.06
39949;BME280;29070;48.102;-1.652;2023-04-07T01:19:57;101693.31;;;7.14;72.44
39949;BME280;29070;48.102;-1.652;2023-04-07T01:30:28;101692.81;;;7.01;71.77
39949;BME280;29070;48.102;-1.652;2023-04-07T01:35:32;101686.56;;;6.94;72.10
39949;BME280;29070;48.102;-1.652;2023-04-07T01:40:34;101689.09;;;6.85;71.81
39949;BME280;29070;48.102;-1.652;2023-04-07T01:45:37;101697.19;;;6.82;72.40
39949;BME280;29070;48.102;-1.652;2023-04-07T01:50:37;101696.16;;;6.75;72.65
39949;BME280;29070;48.102;-1.652;2023-04-07T01:55:38;101699.03;;;6.72;72.57
39949;BME280;29070;48.102;-1.652;2023-04-07T02:00:40;101697.16;;;6.64;72.75
39949;BME280;29070;48.102;-1.652;2023-04-07T02:05:41;101703.50;;;6.62;72.66
39949;BME280;29070;48.102;-1.652;2023-04-07T02:10:42;101697.22;;;6.55;72.84
39949;BME280;29070;48.102;-1.652;2023-04-07T02:15:46;101703.28;;;6.45;72.75
39949;BME280;29070;48.102;-1.652;2023-04-07T02:20:49;101711.28;;;6.34;72.31
39949;BME280;29070;48.102;-1.652;2023-04-07T02:25:55;101716.38;;;6.26;72.44
39949;BME280;29070;48.102;-1.652;2023-04-07T02:30:57;101719.56;;;6.20;72.86
39949;BME280;29070;48.102;-1.652;2023-04-07T02:35:57;101727.25;;;6.11;72.50
39949;BME280;29070;48.102;-1.652;2023-04-07T02:40:57;101716.72;;;6.03;72.91
39949;BME280;29070;48.102;-1.652;2023-04-07T02:45:58;101725.78;;;5.99;72.98
39949;BME280;29070;48.102;-1.652;2023-04-07T02:50:58;101725.06;;;5.97;73.10
39949;BME280;29070;48.102;-1.652;2023-04-07T02:55:59;101716.84;;;5.92;73.10
39949;BME280;29070;48.102;-1.652;2023-04-07T03:00:59;101716.44;;;5.87;73.25
39949;BME280;29070;48.102;-1.652;2023-04-07T03:06:00;101718.78;;;5.80;73.06
39949;BME280;29070;48.102;-1.652;2023-04-07T03:11:00;101725.38;;;5.75;73.03
39949;BME280;29070;48.102;-1.652;2023-04-07T03:16:00;101721.94;;;5.64;72.83
39949;BME280;29070;48.102;-1.652;2023-04-07T03:21:01;101714.41;;;5.51;72.80
39949;BME280;29070;48.102;-1.652;2023-04-07T03:26:02;101720.00;;;5.47;72.88
39949;BME280;29070;48.102;-1.652;2023-04-07T03:31:02;101716.03;;;5.43;73.32
39949;BME280;29070;48.102;-1.652;2023-04-07T03:36:03;101719.75;;;5.40;73.33
39949;BME280;29070;48.102;-1.652;2023-04-07T03:41:03;101706.44;;;5.33;73.15
39949;BME280;29070;48.102;-1.652;2023-04-07T03:46:04;101705.88;;;5.20;72.96
39949;BME280;29070;48.102;-1.652;2023-04-07T03:51:04;101710.81;;;5.13;73.15
39949;BME280;29070;48.102;-1.652;2023-04-07T03:56:04;101704.50;;;5.06;73.34
39949;BME280;29070;48.102;-1.652;2023-04-07T04:01:05;101698.75;;;5.03;73.60
39949;BME280;29070;48.102;-1.652;2023-04-07T04:06:05;101707.75;;;4.89;73.17
39949;BME280;29070;48.102;-1.652;2023-04-07T04:11:06;101706.31;;;4.75;72.89
39949;BME280;29070;48.102;-1.652;2023-04-07T04:16:06;101703.84;;;4.73;73.46
39949;BME280;29070;48.102;-1.652;2023-04-07T04:21:07;101698.91;;;4.70;73.22
39949;BME280;29070;48.102;-1.652;2023-04-07T04:26:07;101702.19;;;4.63;73.14
39949;BME280;29070;48.102;-1.652;2023-04-07T04:31:07;101697.50;;;4.56;73.38
39949;BME280;29070;48.102;-1.652;2023-04-07T04:36:08;101693.25;;;4.55;73.52
39949;BME280;29070;48.102;-1.652;2023-04-07T04:41:08;101701.06;;;4.55;73.73
39949;BME280;29070;48.102;-1.652;2023-04-07T04:46:08;101705.00;;;4.50;73.63
39949;BME280;29070;48.102;-1.652;2023-04-07T04:51:09;101702.38;;;4.40;73.46
39949;BME280;29070;48.102;-1.652;2023-04-07T04:56:09;101700.03;;;4.37;73.76
39949;BME280;29070;48.102;-1.652;2023-04-07T05:01:11;101696.06;;;4.33;73.59
39949;BME280;29070;48.102;-1.652;2023-04-07T05:06:11;101703.97;;;4.31;73.71
39949;BME280;29070;48.102;-1.652;2023-04-07T05:11:12;101705.03;;;4.29;74.08
39949;BME280;29070;48.102;-1.652;2023-04-07T05:16:12;101706.38;;;4.23;73.93
39949;BME280;29070;48.102;-1.652;2023-04-07T05:21:12;101703.47;;;4.16;74.21
39949;BME280;29070;48.102;-1.652;2023-04-07T05:26:13;101705.81;;;4.19;74.44
39949;BME280;29070;48.102;-1.652;2023-04-07T05:31:13;101719.38;;;4.23;74.56
39949;BME280;29070;48.102;-1.652;2023-04-07T05:36:14;101718.47;;;4.34;74.89
39949;BME280;29070;48.102;-1.652;2023-04-07T05:41:15;101715.09;;;4.43;75.08
39949;BME280;29070;48.102;-1.652;2023-04-07T05:46:15;101716.09;;;4.52;75.25
39949;BME280;29070;48.102;-1.652;2023-04-07T05:51:16;101722.53;;;4.57;75.51
39949;BME280;29070;48.102;-1.652;2023-04-07T05:56:16;101718.47;;;4.65;75.69
39949;BME280;29070;48.102;-1.652;2023-04-07T06:01:16;101722.63;;;4.77;75.99
39949;BME280;29070;48.102;-1.652;2023-04-07T06:06:17;101730.47;;;4.87;76.15
39949;BME280;29070;48.102;-1.652;2023-04-07T06:11:17;101730.47;;;4.96;76.23
39949;BME280;29070;48.102;-1.652;2023-04-07T06:16:17;101737.47;;;5.06;76.33
39949;BME280;29070;48.102;-1.652;2023-04-07T06:21:18;101735.31;;;5.11;76.40
39949;BME280;29070;48.102;-1.652;2023-04-07T06:26:18;101745.34;;;5.25;76.67
39949;BME280;29070;48.102;-1.652;2023-04-07T06:31:19;101749.34;;;5.39;76.68
39949;BME280;29070;48.102;-1.652;2023-04-07T06:36:20;101755.94;;;5.53;76.98
39949;BME280;29070;48.102;-1.652;2023-04-07T06:41:20;101760.72;;;5.67;77.09
39949;BME280;29070;48.102;-1.652;2023-04-07T06:46:21;101768.13;;;5.82;77.29
39949;BME280;29070;48.102;-1.652;2023-04-07T06:51:21;101766.78;;;5.97;77.32
39949;BME280;29070;48.102;-1.652;2023-04-07T06:56:22;101765.13;;;6.06;77.60
39949;BME280;29070;48.102;-1.652;2023-04-07T07:01:22;101770.19;;;6.17;77.56
39949;BME280;29070;48.102;-1.652;2023-04-07T07:06:23;101776.34;;;6.26;77.58
39949;BME280;29070;48.102;-1.652;2023-04-07T07:11:23;101772.19;;;6.43;77.89
39949;BME280;29070;48.102;-1.652;2023-04-07T07:16:23;101769.94;;;6.58;77.54
39949;BME280;29070;48.102;-1.652;2023-04-07T07:21:24;101772.41;;;6.69;77.66
39949;BME280;29070;48.102;-1.652;2023-04-07T07:26:25;101765.72;;;6.84;78.02
39949;BME280;29070;48.102;-1.652;2023-04-07T07:31:26;101776.88;;;7.04;78.01
39949;BME280;29070;48.102;-1.652;2023-04-07T07:36:26;101776.25;;;7.20;78.39
39949;BME280;29070;48.102;-1.652;2023-04-07T07:41:27;101781.81;;;7.35;78.34
39949;BME280;29070;48.102;-1.652;2023-04-07T07:46:27;101780.19;;;7.52;78.19
39949;BME280;29070;48.102;-1.652;2023-04-07T07:51:27;101783.69;;;7.61;78.46
39949;BME280;29070;48.102;-1.652;2023-04-07T07:56:28;101778.59;;;7.77;78.47
39949;BME280;29070;48.102;-1.652;2023-04-07T08:01:28;101778.84;;;7.84;77.83
39949;BME280;29070;48.102;-1.652;2023-04-07T08:06:28;101779.94;;;7.99;78.01
39949;BME280;29070;48.102;-1.652;2023-04-07T08:11:30;101784.47;;;8.15;78.40
39949;BME280;29070;48.102;-1.652;2023-04-07T08:16:30;101785.78;;;8.37;78.74
39949;BME280;29070;48.102;-1.652;2023-04-07T08:21:31;101791.13;;;8.54;78.26
39949;BME280;29070;48.102;-1.652;2023-04-07T08:26:32;101796.50;;;8.78;78.66
39949;BME280;29070;48.102;-1.652;2023-04-07T08:31:32;101784.28;;;8.95;78.80
39949;BME280;29070;48.102;-1.652;2023-04-07T08:36:32;101795.66;;;9.12;78.72
39949;BME280;29070;48.102;-1.652;2023-04-07T08:41:36;101794.38;;;9.25;78.43
39949;BME280;29070;48.102;-1.652;2023-04-07T08:46:38;101788.97;;;9.26;78.06
39949;BME280;29070;48.102;-1.652;2023-04-07T08:51:44;101786.22;;;9.44;78.67
39949;BME280;29070;48.102;-1.652;2023-04-07T08:56:48;101795.44;;;9.81;78.84
39949;BME280;29070;48.102;-1.652;2023-04-07T09:01:49;101792.50;;;10.17;78.39
39949;BME280;29070;48.102;-1.652;2023-04-07T09:06:50;101799.19;;;10.53;78.83
39949;BME280;29070;48.102;-1.652;2023-04-07T09:11:50;101796.72;;;10.59;77.69
39949;BME280;29070;48.102;-1.652;2023-04-07T09:16:53;101802.25;;;10.81;77.54
39949;BME280;29070;48.102;-1.652;2023-04-07T09:21:54;101815.75;;;11.09;77.28
39949;BME280;29070;48.102;-1.652;2023-04-07T09:27:14;101806.38;;;11.15;76.50
39949;BME280;29070;48.102;-1.652;2023-04-07T09:32:35;101807.56;;;11.35;76.73
39949;BME280;29070;48.102;-1.652;2023-04-07T09:37:37;101813.84;;;11.57;76.74
39949;BME280;29070;48.102;-1.652;2023-04-07T09:42:45;101819.63;;;11.76;76.14
39949;BME280;29070;48.102;-1.652;2023-04-07T09:47:45;101829.09;;;11.93;75.71
39949;BME280;29070;48.102;-1.652;2023-04-07T09:52:51;101820.13;;;12.02;74.71
39949;BME280;29070;48.102;-1.652;2023-04-07T09:57:52;101821.44;;;12.22;74.82
39949;BME280;29070;48.102;-1.652;2023-04-07T10:02:54;101820.59;;;12.74;74.94
39949;BME280;29070;48.102;-1.652;2023-04-07T10:07:55;101819.47;;;13.13;74.11
39949;BME280;29070;48.102;-1.652;2023-04-07T10:12:56;101804.72;;;13.33;73.27
39949;BME280;29070;48.102;-1.652;2023-04-07T10:17:58;101795.69;;;13.64;72.62
39949;BME280;29070;48.102;-1.652;2023-04-07T10:23:08;101792.91;;;13.94;72.03
39949;BME280;29070;48.102;-1.652;2023-04-07T10:28:13;101799.06;;;14.29;71.56
39949;BME280;29070;48.102;-1.652;2023-04-07T10:33:14;101802.81;;;14.48;70.40
39949;BME280;29070;48.102;-1.652;2023-04-07T10:38:16;101795.75;;;14.49;69.30
39949;BME280;29070;48.102;-1.652;2023-04-07T10:43:36;101785.34;;;14.76;67.74
39949;BME280;29070;48.102;-1.652;2023-04-07T10:48:36;101784.38;;;14.90;67.85
39949;BME280;29070;48.102;-1.652;2023-04-07T10:53:37;101772.97;;;14.90;67.29
39949;BME280;29070;48.102;-1.652;2023-04-07T10:59:13;101762.06;;;15.06;66.33
39949;BME280;29070;48.102;-1.652;2023-04-07T11:04:14;101762.16;;;15.53;66.05
39949;BME280;29070;48.102;-1.652;2023-04-07T11:09:18;101748.75;;;15.88;65.16
39949;BME280;29070;48.102;-1.652;2023-04-07T11:14:26;101741.41;;;16.10;62.84
39949;BME280;29070;48.102;-1.652;2023-04-07T11:19:27;101747.88;;;16.34;62.40
39949;BME280;29070;48.102;-1.652;2023-04-07T11:24:36;101735.81;;;16.45;59.69
39949;BME280;29070;48.102;-1.652;2023-04-07T11:29:37;101747.16;;;16.65;60.52
39949;BME280;29070;48.102;-1.652;2023-04-07T11:34:37;101739.22;;;16.65;59.08
39949;BME280;29070;48.102;-1.652;2023-04-07T11:39:39;101725.47;;;16.82;58.68
39949;BME280;29070;48.102;-1.652;2023-04-07T11:44:45;101731.78;;;16.94;57.44
39949;BME280;29070;48.102;-1.652;2023-04-07T11:49:45;101736.97;;;17.07;56.38
39949;BME280;29070;48.102;-1.652;2023-04-07T11:54:46;101735.44;;;17.25;55.75
39949;BME280;29070;48.102;-1.652;2023-04-07T11:59:46;101728.25;;;17.32;55.19
39949;BME280;29070;48.102;-1.652;2023-04-07T12:04:55;101719.16;;;17.46;53.45
39949;BME280;29070;48.102;-1.652;2023-04-07T12:09:56;101717.91;;;17.49;53.74
39949;BME280;29070;48.102;-1.652;2023-04-07T12:14:56;101714.06;;;17.70;53.54
39949;BME280;29070;48.102;-1.652;2023-04-07T12:19:57;101715.19;;;17.87;52.81
39949;BME280;29070;48.102;-1.652;2023-04-07T12:24:57;101717.41;;;17.90;51.77
39949;BME280;29070;48.102;-1.652;2023-04-07T12:29:58;101707.75;;;17.96;51.76
39949;BME280;29070;48.102;-1.652;2023-04-07T12:34:58;101703.75;;;18.05;50.97
39949;BME280;29070;48.102;-1.652;2023-04-07T12:39:59;101702.00;;;18.18;50.32
39949;BME280;29070;48.102;-1.652;2023-04-07T12:44:59;101697.69;;;18.17;50.17
39949;BME280;29070;48.102;-1.652;2023-04-07T12:49:59;101681.22;;;18.45;49.85
39949;BME280;29070;48.102;-1.652;2023-04-07T12:55:00;101681.19;;;18.63;49.29
39949;BME280;29070;48.102;-1.652;2023-04-07T13:00:01;101679.28;;;18.52;48.42
39949;BME280;29070;48.102;-1.652;2023-04-07T13:05:01;101670.88;;;18.55;48.00
39949;BME280;29070;48.102;-1.652;2023-04-07T13:10:02;101659.72;;;18.46;47.12
39949;BME280;29070;48.102;-1.652;2023-04-07T13:15:05;101650.47;;;18.67;47.09
39949;BME280;29070;48.102;-1.652;2023-04-07T13:20:06;101648.75;;;18.73;46.35
39949;BME280;29070;48.102;-1.652;2023-04-07T13:25:07;101639.00;;;18.67;45.90
39949;BME280;29070;48.102;-1.652;2023-04-07T13:30:08;101642.78;;;18.90;46.04
39949;BME280;29070;48.102;-1.652;2023-04-07T13:35:08;101647.81;;;19.10;45.56
39949;BME280;29070;48.102;-1.652;2023-04-07T13:40:09;101632.66;;;19.10;44.60
39949;BME280;29070;48.102;-1.652;2023-04-07T13:45:11;101634.53;;;19.21;44.68
39949;BME280;29070;48.102;-1.652;2023-04-07T13:50:12;101627.91;;;19.24;43.90
39949;BME280;29070;48.102;-1.652;2023-04-07T13:55:12;101625.84;;;19.38;43.88
39949;BME280;29070;48.102;-1.652;2023-04-07T14:00:13;101624.56;;;19.52;43.65
39949;BME280;29070;48.102;-1.652;2023-04-07T14:05:14;101624.22;;;19.60;42.72
39949;BME280;29070;48.102;-1.652;2023-04-07T14:10:14;101619.94;;;19.59;42.73
39949;BME280;29070;48.102;-1.652;2023-04-07T14:15:15;101610.31;;;19.70;42.78
39949;BME280;29070;48.102;-1.652;2023-04-07T14:20:15;101609.59;;;19.87;42.78
39949;BME280;29070;48.102;-1.652;2023-04-07T14:25:16;101610.59;;;20.09;42.19
39949;BME280;29070;48.102;-1.652;2023-04-07T14:30:16;101601.97;;;19.90;41.35
39949;BME280;29070;48.102;-1.652;2023-04-07T14:35:16;101591.53;;;19.89;40.61
39949;BME280;29070;48.102;-1.652;2023-04-07T14:40:17;101584.69;;;19.93;40.89
39949;BME280;29070;48.102;-1.652;2023-04-07T14:45:17;101587.84;;;19.90;40.50
39949;BME280;29070;48.102;-1.652;2023-04-07T14:50:19;101586.50;;;20.04;40.60
39949;BME280;29070;48.102;-1.652;2023-04-07T14:55:19;101587.38;;;19.93;40.56
39949;BME280;29070;48.102;-1.652;2023-04-07T15:00:20;101570.88;;;19.96;40.41
39949;BME280;29070;48.102;-1.652;2023-04-07T15:05:20;101577.84;;;19.97;40.39
39949;BME280;29070;48.102;-1.652;2023-04-07T15:10:25;101572.72;;;20.07;40.35
39949;BME280;29070;48.102;-1.652;2023-04-07T15:15:25;101574.53;;;20.18;39.86
39949;BME280;29070;48.102;-1.652;2023-04-07T15:20:26;101574.19;;;20.15;39.19
39949;BME280;29070;48.102;-1.652;2023-04-07T15:25:26;101581.00;;;20.23;39.33
39949;BME280;29070;48.102;-1.652;2023-04-07T15:30:27;101577.66;;;20.15;39.30
39949;BME280;29070;48.102;-1.652;2023-04-07T15:35:28;101574.00;;;20.05;38.56
39949;BME280;29070;48.102;-1.652;2023-04-07T15:40:28;101572.91;;;19.65;38.22
39949;BME280;29070;48.102;-1.652;2023-04-07T15:45:29;101566.09;;;19.69;38.56
39949;BME280;29070;48.102;-1.652;2023-04-07T15:50:29;101564.47;;;19.68;38.22
39949;BME280;29070;48.102;-1.652;2023-04-07T15:55:34;101561.94;;;19.73;37.84
39949;BME280;29070;48.102;-1.652;2023-04-07T16:00:37;101570.72;;;19.62;37.94
39949;BME280;29070;48.102;-1.652;2023-04-07T16:05:37;101561.94;;;19.50;38.34
39949;BME280;29070;48.102;-1.652;2023-04-07T16:10:38;101567.97;;;19.57;38.50
39949;BME280;29070;48.102;-1.652;2023-04-07T16:15:38;101560.66;;;19.52;37.83
39949;BME280;29070;48.102;-1.652;2023-04-07T16:20:39;101562.06;;;19.43;37.57
39949;BME280;29070;48.102;-1.652;2023-04-07T16:25:39;101567.72;;;19.47;37.96
39949;BME280;29070;48.102;-1.652;2023-04-07T16:30:39;101564.63;;;19.38;38.15
39949;BME280;29070;48.102;-1.652;2023-04-07T16:35:40;101566.81;;;19.29;37.60
39949;BME280;29070;48.102;-1.652;2023-04-07T16:40:44;101569.94;;;19.26;38.20
39949;BME280;29070;48.102;-1.652;2023-04-07T16:45:49;101559.75;;;19.11;38.12
39949;BME280;29070;48.102;-1.652;2023-04-07T16:50:50;101568.91;;;19.03;38.17
39949;BME280;29070;48.102;-1.652;2023-04-07T16:55:50;101568.31;;;18.90;37.80
39949;BME280;29070;48.102;-1.652;2023-04-07T17:00:50;101569.31;;;18.77;37.79
39949;BME280;29070;48.102;-1.652;2023-04-07T17:05:51;101572.31;;;18.80;37.96
39949;BME280;29070;48.102;-1.652;2023-04-07T17:10:51;101575.53;;;18.71;37.89
39949;BME280;29070;48.102;-1.652;2023-04-07T17:15:53;101559.44;;;18.54;37.88
39949;BME280;29070;48.102;-1.652;2023-04-07T17:20:54;101579.03;;;18.41;38.31
39949;BME280;29070;48.102;-1.652;2023-04-07T17:25:54;101584.63;;;18.21;37.86
39949;BME280;29070;48.102;-1.652;2023-04-07T17:30:54;101588.84;;;18.10;37.99
39949;BME280;29070;48.102;-1.652;2023-04-07T17:35:55;101582.19;;;18.01;38.38
39949;BME280;29070;48.102;-1.652;2023-04-07T17:40:59;101586.66;;;17.88;38.69
39949;BME280;29070;48.102;-1.652;2023-04-07T17:46:00;101597.25;;;17.70;38.61
39949;BME280;29070;48.102;-1.652;2023-04-07T17:51:02;101602.53;;;17.51;38.79
39949;BME280;29070;48.102;-1.652;2023-04-07T17:56:03;101614.91;;;17.39;38.86
39949;BME280;29070;48.102;-1.652;2023-04-07T18:01:06;101606.16;;;17.13;38.81
39949;BME280;29070;48.102;-1.652;2023-04-07T18:06:07;101626.50;;;16.94;39.15
39949;BME280;29070;48.102;-1.652;2023-04-07T18:11:10;101625.34;;;16.84;39.15
39949;BME280;29070;48.102;-1.652;2023-04-07T18:16:10;101632.91;;;16.73;39.67
39949;BME280;29070;48.102;-1.652;2023-04-07T18:21:15;101634.59;;;16.61;39.95
39949;BME280;29070;48.102;-1.652;2023-04-07T18:26:16;101652.44;;;16.47;40.08
39949;BME280;29070;48.102;-1.652;2023-04-07T18:31:16;101645.16;;;16.29;40.38
39949;BME280;29070;48.102;-1.652;2023-04-07T18:36:17;101649.91;;;16.14;40.80
39949;BME280;29070;48.102;-1.652;2023-04-07T18:41:18;101651.19;;;15.98;40.88
39949;BME280;29070;48.102;-1.652;2023-04-07T18:46:18;101655.09;;;15.82;41.05
39949;BME280;29070;48.102;-1.652;2023-04-07T18:51:18;101662.81;;;15.57;41.34
39949;BME280;29070;48.102;-1.652;2023-04-07T18:56:19;101670.16;;;15.41;41.71
39949;BME280;29070;48.102;-1.652;2023-04-07T19:01:24;101676.69;;;15.25;41.93
39949;BME280;29070;48.102;-1.652;2023-04-07T19:06:25;101678.06;;;15.08;42.21
39949;BME280;29070;48.102;-1.652;2023-04-07T19:11:27;101680.66;;;14.81;42.95
39949;BME280;29070;48.102;-1.652;2023-04-07T19:16:27;101697.06;;;14.63;43.86
39949;BME280;29070;48.102;-1.652;2023-04-07T19:21:27;101706.13;;;14.47;44.39
39949;BME280;29070;48.102;-1.652;2023-04-07T19:26:28;101703.63;;;14.33;45.33
39949;BME280;29070;48.102;-1.652;2023-04-07T19:31:29;101716.53;;;14.21;45.90
39949;BME280;29070;48.102;-1.652;2023-04-07T19:36:31;101737.19;;;14.10;46.38
39949;BME280;29070;48.102;-1.652;2023-04-07T19:41:31;101745.63;;;13.99;46.70
39949;BME280;29070;48.102;-1.652;2023-04-07T19:46:32;101749.00;;;13.86;47.40
39949;BME280;29070;48.102;-1.652;2023-04-07T19:51:32;101750.66;;;13.66;47.95
39949;BME280;29070;48.102;-1.652;2023-04-07T19:56:34;101754.34;;;13.50;48.56
39949;BME280;29070;48.102;-1.652;2023-04-07T20:01:34;101760.16;;;13.39;48.73
39949;BME280;29070;48.102;-1.652;2023-04-07T20:06:35;101761.78;;;13.25;49.11
39949;BME280;29070;48.102;-1.652;2023-04-07T20:11:38;101763.66;;;13.09;49.40
39949;BME280;29070;48.102;-1.652;2023-04-07T20:16:38;101768.59;;;12.97;49.87
39949;BME280;29070;48.102;-1.652;2023-04-07T20:21:38;101773.78;;;12.91;50.23
39949;BME280;29070;48.102;-1.652;2023-04-07T20:26:39;101773.63;;;12.77;50.52
39949;BME280;29070;48.102;-1.652;2023-04-07T20:31:39;101779.72;;;12.63;51.01
39949;BME280;29070;48.102;-1.652;2023-04-07T20:36:40;101781.97;;;12.51;51.37
39949;BME280;29070;48.102;-1.652;2023-04-07T20:41:40;101797.22;;;12.41;51.81
39949;BME280;29070;48.102;-1.652;2023-04-07T20:46:43;101794.41;;;12.28;51.97
39949;BME280;29070;48.102;-1.652;2023-04-07T20:51:45;101802.75;;;12.16;52.57
39949;BME280;29070;48.102;-1.652;2023-04-07T20:56:45;101806.50;;;11.99;53.07
39949;BME280;29070;48.102;-1.652;2023-04-07T21:01:45;101797.84;;;11.90;53.34
39949;BME280;29070;48.102;-1.652;2023-04-07T21:06:46;101814.66;;;11.81;53.70
39949;BME280;29070;48.102;-1.652;2023-04-07T21:11:46;101811.63;;;11.69;53.97
39949;BME280;29070;48.102;-1.652;2023-04-07T21:16:46;101816.31;;;11.59;54.30
39949;BME280;29070;48.102;-1.652;2023-04-07T21:21:47;101806.81;;;11.50;54.63
39949;BME280;29070;48.102;-1.652;2023-04-07T21:26:47;101819.38;;;11.39;55.01
39949;BME280;29070;48.102;-1.652;2023-04-07T21:31:48;101812.50;;;11.30;55.13
39949;BME280;29070;48.102;-1.652;2023-04-07T21:36:48;101813.91;;;11.18;55.40
39949;BME280;29070;48.102;-1.652;2023-04-07T21:41:49;101823.47;;;11.11;55.90
39949;BME280;29070;48.102;-1.652;2023-04-07T21:46:49;101833.00;;;11.03;56.04
39949;BME280;29070;48.102;-1.652;2023-04-07T21:51:49;101817.13;;;10.97;56.53
39949;BME280;29070;48.102;-1.652;2023-04-07T21:56:50;101818.16;;;10.87;56.55
39949;BME280;29070;48.102;-1.652;2023-04-07T22:01:51;101808.16;;;10.75;56.63
39949;BME280;29070;48.102;-1.652;2023-04-07T22:06:52;101809.16;;;10.65;56.90
39949;BME280;29070;48.102;-1.652;2023-04-07T22:11:53;101804.59;;;10.59;57.35
39949;BME280;29070;48.102;-1.652;2023-04-07T22:16:54;101810.19;;;10.48;57.29
39949;BME280;29070;48.102;-1.652;2023-04-07T22:21:54;101811.84;;;10.41;57.58
39949;BME280;29070;48.102;-1.652;2023-04-07T22:26:54;101804.28;;;10.29;57.52
39949;BME280;29070;48.102;-1.652;2023-04-07T22:31:55;101810.38;;;10.22;57.93
39949;BME280;29070;48.102;-1.652;2023-04-07T22:36:55;101814.81;;;10.13;58.21
39949;BME280;29070;48.102;-1.652;2023-04-07T22:41:55;101799.75;;;10.07;58.29
39949;BME280;29070;48.102;-1.652;2023-04-07T22:46:56;101808.56;;;9.98;58.47
39949;BME280;29070;48.102;-1.652;2023-04-07T22:51:56;101804.81;;;9.92;58.82
39949;BME280;29070;48.102;-1.652;2023-04-07T22:56:56;101801.19;;;9.85;58.83
39949;BME280;29070;48.102;-1.652;2023-04-07T23:01:57;101804.63;;;9.77;58.98
39949;BME280;29070;48.102;-1.652;2023-04-07T23:06:57;101808.72;;;9.71;59.31
39949;BME280;29070;48.102;-1.652;2023-04-07T23:11:57;101812.47;;;9.61;59.52
39949;BME280;29070;48.102;-1.652;2023-04-07T23:16:58;101814.41;;;9.50;59.44
39949;BME280;29070;48.102;-1.652;2023-04-07T23:21:58;101816.38;;;9.48;59.67
39949;BME280;29070;48.102;-1.652;2023-04-07T23:26:58;101816.34;;;9.40;59.96
39949;BME280;29070;48.102;-1.652;2023-04-07T23:31:59;101823.22;;;9.33;60.19
39949;BME280;29070;48.102;-1.652;2023-04-07T23:37:00;101832.03;;;9.24;60.38
39949;BME280;29070;48.102;-1.652;2023-04-07T23:42:00;101829.06;;;9.19;60.24
39949;BME280;29070;48.102;-1.652;2023-04-07T23:47:01;101829.84;;;9.11;60.75
39949;BME280;29070;48.102;-1.652;2023-04-07T23:52:01;101842.59;;;9.06;60.60
39949;BME280;29070;48.102;-1.652;2023-04-07T23:57:02;101844.06;;;9.00;60.88
